createdAt,value
2018-06-28T00:01:04.208Z,66.38
2018-06-28T00:02:39.804Z,66.51
2018-06-28T00:04:15.363Z,66.41
2018-06-28T00:05:51.074Z,66.54
2018-06-28T00:07:26.613Z,66.50
2018-06-28T00:09:02.208Z,66.56
2018-06-28T00:10:37.803Z,66.50
2018-06-28T00:12:13.422Z,66.39
2018-06-28T00:13:48.995Z,66.46
2018-06-28T00:15:24.605Z,66.58
2018-06-28T00:17:00.182Z,66.68
2018-06-28T00:18:35.771Z,66.59
2018-06-28T00:20:11.396Z,66.51
2018-06-28T00:21:47.027Z,66.89
2018-06-28T00:23:22.583Z,66.83
2018-06-28T00:24:58.132Z,66.80
2018-06-28T00:26:33.733Z,66.82
2018-06-28T00:28:09.290Z,67.11
2018-06-28T00:29:44.871Z,67.44
2018-06-28T00:31:20.490Z,67.12
2018-06-28T00:32:56.057Z,67.09
2018-06-28T00:34:31.626Z,67.13
2018-06-28T00:36:07.222Z,67.69
2018-06-28T00:37:42.822Z,67.72
2018-06-28T00:39:18.385Z,67.87
2018-06-28T00:40:53.966Z,67.93
2018-06-28T00:42:29.586Z,68.37
2018-06-28T00:44:05.226Z,68.57
2018-06-28T00:45:40.923Z,68.77
2018-06-28T00:47:16.529Z,68.96
2018-06-28T00:48:52.117Z,68.81
2018-06-28T00:50:27.774Z,69.01
2018-06-28T00:52:03.385Z,69.18
2018-06-28T00:53:39.075Z,69.74
2018-06-28T00:55:14.663Z,69.07
2018-06-28T00:56:50.290Z,68.80
2018-06-28T00:58:25.874Z,68.74
2018-06-28T01:00:01.433Z,68.77
2018-06-28T01:01:37.017Z,68.81
2018-06-28T01:03:12.645Z,69.17
2018-06-28T01:04:48.215Z,69.13
2018-06-28T01:06:23.840Z,69.59
2018-06-28T01:07:59.393Z,69.98
2018-06-28T01:09:35.016Z,70.81
2018-06-28T01:11:10.655Z,71.06
2018-06-28T01:12:46.226Z,71.01
2018-06-28T01:14:21.894Z,71.17
2018-06-28T01:15:57.465Z,71.11
2018-06-28T01:17:33.100Z,71.22
2018-06-28T01:19:09.252Z,71.10
2018-06-28T01:20:44.860Z,70.79
2018-06-28T01:22:20.628Z,70.71
2018-06-28T01:23:56.213Z,70.68
2018-06-28T01:25:31.860Z,70.50
2018-06-28T01:27:07.439Z,70.95
2018-06-28T01:28:43.043Z,70.91
2018-06-28T01:30:18.624Z,70.82
2018-06-28T01:31:54.266Z,70.69
2018-06-28T01:33:29.865Z,70.86
2018-06-28T01:35:05.527Z,70.75
2018-06-28T01:36:41.106Z,70.44
2018-06-28T01:38:16.766Z,70.51
2018-06-28T01:39:52.367Z,70.43
2018-06-28T01:41:37.999Z,70.19
2018-06-28T01:43:35.861Z,70.67
2018-06-28T01:45:11.430Z,71.13
2018-06-28T01:46:47.109Z,70.98
2018-06-28T01:48:22.703Z,71.54
2018-06-28T01:49:58.308Z,71.54
2018-06-28T01:51:33.893Z,71.52
2018-06-28T01:53:09.519Z,71.49
2018-06-28T01:54:45.124Z,71.53
2018-06-28T01:56:20.688Z,71.76
2018-06-28T01:57:56.246Z,72.09
2018-06-28T01:59:31.855Z,72.24
2018-06-28T02:01:07.624Z,71.87
2018-06-28T02:02:43.312Z,72.02
2018-06-28T02:04:19.111Z,71.81
2018-06-28T02:05:55.218Z,71.75
2018-06-28T02:07:30.839Z,71.56
2018-06-28T02:09:08.489Z,71.93
2018-06-28T02:10:44.077Z,71.61
2018-06-28T02:12:19.692Z,71.55
2018-06-28T02:13:55.284Z,71.94
2018-06-28T02:15:30.875Z,71.76
2018-06-28T02:17:06.488Z,71.69
2018-06-28T02:18:42.124Z,71.80
2018-06-28T02:20:17.696Z,71.88
2018-06-28T02:21:53.352Z,71.91
2018-06-28T02:23:28.925Z,71.97
2018-06-28T02:25:04.647Z,72.17
2018-06-28T02:26:40.244Z,72.13
2018-06-28T02:28:15.822Z,71.99
2018-06-28T02:29:51.453Z,72.19
2018-06-28T02:31:27.017Z,72.23
2018-06-28T02:33:02.591Z,72.07
2018-06-28T02:34:38.164Z,72.22
2018-06-28T02:36:13.789Z,72.47
2018-06-28T02:37:49.356Z,72.61
2018-06-28T02:39:24.955Z,72.53
2018-06-28T02:41:00.549Z,72.38
2018-06-28T02:42:36.112Z,72.59
2018-06-28T02:44:11.725Z,72.47
2018-06-28T02:45:47.338Z,72.55
2018-06-28T02:47:22.966Z,72.22
2018-06-28T02:48:58.583Z,72.13
2018-06-28T02:50:34.145Z,71.88
2018-06-28T02:52:09.721Z,71.69
2018-06-28T02:53:45.376Z,72.10
2018-06-28T02:55:20.980Z,71.81
2018-06-28T02:56:56.564Z,71.70
2018-06-28T02:58:32.188Z,71.80
2018-06-28T03:00:08.038Z,71.57
2018-06-28T03:01:43.734Z,71.52
2018-06-28T03:03:19.358Z,71.83
2018-06-28T03:04:55.156Z,71.53
2018-06-28T03:06:30.727Z,71.26
2018-06-28T03:08:06.689Z,71.33
2018-06-28T03:09:42.280Z,71.62
2018-06-28T03:11:17.947Z,71.76
2018-06-28T03:12:53.957Z,72.03
2018-06-28T03:14:29.562Z,72.15
2018-06-28T03:16:05.167Z,72.00
2018-06-28T03:17:40.764Z,72.36
2018-06-28T03:19:16.380Z,72.33
2018-06-28T03:20:52.029Z,72.38
2018-06-28T03:22:27.727Z,72.47
2018-06-28T03:24:03.351Z,72.12
2018-06-28T03:25:38.940Z,71.97
2018-06-28T03:27:14.594Z,72.11
2018-06-28T03:28:53.394Z,71.99
2018-06-28T03:30:29.044Z,71.96
2018-06-28T03:32:04.662Z,71.80
2018-06-28T03:33:40.222Z,71.87
2018-06-28T03:35:15.840Z,71.85
2018-06-28T03:36:51.543Z,71.85
2018-06-28T03:38:27.111Z,71.91
2018-06-28T03:40:02.753Z,72.04
2018-06-28T03:41:38.480Z,72.13
2018-06-28T03:43:14.044Z,72.14
2018-06-28T03:44:49.635Z,72.12
2018-06-28T03:46:25.258Z,72.36
2018-06-28T03:48:00.851Z,72.31
2018-06-28T03:49:36.504Z,72.18
2018-06-28T03:51:12.201Z,72.08
2018-06-28T03:52:47.769Z,72.21
2018-06-28T03:54:23.340Z,72.35
2018-06-28T03:55:58.904Z,72.34
2018-06-28T03:57:46.585Z,72.30
2018-06-28T03:59:22.150Z,72.11
2018-06-28T04:00:57.829Z,72.26
2018-06-28T04:02:33.448Z,72.23
2018-06-28T04:04:09.016Z,72.07
2018-06-28T04:05:44.602Z,72.33
2018-06-28T04:07:20.179Z,72.14
2018-06-28T04:08:55.801Z,72.22
2018-06-28T04:10:31.380Z,72.37
2018-06-28T04:12:06.955Z,71.98
2018-06-28T04:13:42.599Z,71.46
2018-06-28T04:15:18.188Z,70.44
2018-06-28T04:16:53.781Z,68.31
2018-06-28T04:18:29.348Z,65.75
2018-06-28T04:20:04.951Z,62.81
2018-06-28T04:21:40.577Z,59.55
2018-06-28T04:23:16.143Z,56.52
2018-06-28T04:24:51.850Z,54.70
2018-06-28T04:26:27.475Z,52.73
2018-06-28T04:28:03.068Z,50.62
2018-06-28T04:29:38.685Z,49.29
2018-06-28T04:31:14.259Z,48.46
2018-06-28T04:32:49.877Z,47.76
2018-06-28T04:34:25.478Z,46.99
2018-06-28T04:36:01.399Z,46.45
2018-06-28T04:37:37.017Z,45.93
2018-06-28T04:39:13.548Z,45.70
2018-06-28T04:40:49.164Z,45.08
2018-06-28T04:42:24.752Z,44.04
2018-06-28T04:44:00.322Z,43.87
2018-06-28T04:45:35.923Z,44.09
2018-06-28T04:47:11.566Z,44.90
2018-06-28T04:48:47.143Z,45.76
2018-06-28T04:50:22.728Z,46.50
2018-06-28T04:51:58.384Z,46.57
2018-06-28T04:53:33.989Z,46.50
2018-06-28T04:55:09.570Z,46.02
2018-06-28T04:56:45.183Z,45.58
2018-06-28T04:58:20.766Z,45.99
2018-06-28T04:59:56.349Z,44.95
2018-06-28T05:01:31.983Z,45.43
2018-06-28T05:03:07.622Z,46.81
2018-06-28T05:04:43.192Z,46.40
2018-06-28T05:06:18.773Z,47.28
2018-06-28T05:07:55.911Z,48.83
2018-06-28T05:09:32.262Z,50.39
2018-06-28T05:11:08.135Z,51.41
2018-06-28T05:12:43.910Z,51.72
2018-06-28T05:14:31.852Z,51.81
2018-06-28T05:16:10.723Z,52.38
2018-06-28T05:17:47.303Z,52.57
2018-06-28T05:19:22.872Z,53.35
2018-06-28T05:20:59.460Z,53.74
2018-06-28T05:22:35.281Z,54.78
2018-06-28T05:24:10.920Z,55.97
2018-06-28T05:25:53.293Z,56.75
2018-06-28T05:27:29.925Z,57.49
2018-06-28T05:29:05.743Z,57.94
2018-06-28T05:30:43.305Z,58.71
2018-06-28T05:32:20.524Z,59.25
2018-06-28T05:33:56.120Z,59.59
2018-06-28T05:35:32.075Z,60.17
2018-06-28T05:37:08.970Z,60.04
2018-06-28T05:38:44.606Z,60.23
2018-06-28T05:40:20.436Z,60.37
2018-06-28T05:41:57.062Z,61.38
2018-06-28T05:43:32.742Z,61.36
2018-06-28T05:45:08.631Z,61.40
2018-06-28T05:46:44.365Z,61.71
2018-06-28T05:48:20.096Z,62.07
2018-06-28T05:49:56.045Z,62.37
2018-06-28T05:51:32.172Z,62.35
2018-06-28T05:53:07.908Z,62.65
2018-06-28T05:54:43.492Z,62.76
2018-06-28T05:56:19.105Z,63.33
2018-06-28T05:57:54.727Z,63.35
2018-06-28T05:59:30.318Z,63.17
2018-06-28T06:01:06.025Z,63.59
2018-06-28T06:02:41.685Z,63.92
2018-06-28T06:04:17.284Z,63.60
2018-06-28T06:05:55.067Z,63.23
2018-06-28T06:07:30.737Z,62.88
2018-06-28T06:09:08.494Z,62.77
2018-06-28T06:10:45.962Z,62.99
2018-06-28T06:12:23.617Z,62.55
2018-06-28T06:13:59.258Z,62.77
2018-06-28T06:15:36.588Z,62.90
2018-06-28T06:17:12.190Z,62.84
2018-06-28T06:18:48.525Z,62.87
2018-06-28T06:20:24.142Z,62.44
2018-06-28T06:21:59.774Z,62.28
2018-06-28T06:23:35.497Z,62.60
2018-06-28T06:25:11.612Z,62.03
2018-06-28T06:26:48.480Z,62.44
2018-06-28T06:28:25.056Z,62.54
2018-06-28T06:30:02.705Z,62.35
2018-06-28T06:31:39.869Z,61.78
2018-06-28T06:33:15.515Z,61.93
2018-06-28T06:34:51.635Z,62.15
2018-06-28T06:36:27.594Z,62.40
2018-06-28T06:38:03.215Z,62.15
2018-06-28T06:39:38.816Z,62.02
2018-06-28T06:41:14.646Z,62.22
2018-06-28T06:42:50.700Z,61.81
2018-06-28T06:44:26.287Z,62.08
2018-06-28T06:46:01.927Z,61.52
2018-06-28T06:47:37.564Z,62.29
2018-06-28T06:49:13.163Z,61.62
2018-06-28T06:50:48.782Z,61.96
2018-06-28T06:52:24.398Z,61.60
2018-06-28T06:53:59.977Z,61.67
2018-06-28T06:55:35.543Z,61.77
2018-06-28T06:57:11.101Z,61.29
2018-06-28T06:58:46.696Z,61.03
2018-06-28T07:00:22.344Z,61.01
2018-06-28T07:01:57.940Z,61.24
2018-06-28T07:03:33.569Z,60.65
2018-06-28T07:05:09.105Z,60.61
2018-06-28T07:06:44.715Z,60.43
2018-06-28T07:08:20.293Z,60.57
2018-06-28T07:09:55.903Z,60.38
2018-06-28T07:11:31.522Z,60.26
2018-06-28T07:13:07.157Z,60.29
2018-06-28T07:14:42.756Z,60.16
2018-06-28T07:16:18.372Z,60.22
2018-06-28T07:17:53.956Z,60.40
2018-06-28T07:19:29.569Z,60.35
2018-06-28T07:21:05.168Z,60.59
2018-06-28T07:22:40.757Z,60.24
2018-06-28T07:24:16.358Z,60.72
2018-06-28T07:25:51.978Z,60.37
2018-06-28T07:27:27.560Z,60.52
2018-06-28T07:29:03.126Z,60.58
2018-06-28T07:30:38.719Z,60.02
2018-06-28T07:32:14.345Z,60.08
2018-06-28T07:33:49.921Z,60.08
2018-06-28T07:35:25.707Z,59.92
2018-06-28T07:37:01.291Z,59.90
2018-06-28T07:38:36.868Z,59.67
2018-06-28T07:40:12.674Z,59.19
2018-06-28T07:41:48.275Z,58.72
2018-06-28T07:43:23.849Z,58.77
2018-06-28T07:44:59.444Z,59.04
2018-06-28T07:46:41.376Z,59.05
2018-06-28T07:48:16.963Z,58.51
2018-06-28T07:49:52.578Z,58.13
2018-06-28T07:51:28.208Z,58.29
2018-06-28T07:53:05.207Z,57.47
2018-06-28T07:54:40.781Z,57.55
2018-06-28T07:56:16.363Z,57.84
2018-06-28T07:57:51.975Z,57.07
2018-06-28T07:59:27.722Z,57.01
2018-06-28T08:01:03.817Z,56.95
2018-06-28T08:02:41.564Z,56.46
2018-06-28T08:04:17.154Z,56.34
2018-06-28T08:05:53.395Z,55.95
2018-06-28T08:07:28.968Z,55.91
2018-06-28T08:09:06.394Z,56.05
2018-06-28T08:10:41.991Z,55.63
2018-06-28T08:12:17.852Z,55.69
2018-06-28T08:13:53.464Z,55.75
2018-06-28T08:15:29.064Z,55.09
2018-06-28T08:17:05.864Z,54.83
2018-06-28T08:18:41.833Z,55.10
2018-06-28T08:20:17.446Z,55.02
2018-06-28T08:21:53.959Z,54.98
2018-06-28T08:23:29.988Z,54.91
2018-06-28T08:25:06.821Z,53.93
2018-06-28T08:26:42.547Z,54.25
2018-06-28T08:28:18.126Z,54.03
2018-06-28T08:29:53.703Z,54.24
2018-06-28T08:31:29.333Z,53.66
2018-06-28T08:33:04.960Z,53.97
2018-06-28T08:34:40.571Z,53.42
2018-06-28T08:36:16.312Z,53.45
2018-06-28T08:37:51.959Z,52.99
2018-06-28T08:39:28.108Z,52.64
2018-06-28T08:41:04.114Z,52.64
2018-06-28T08:42:39.885Z,52.61
2018-06-28T08:44:15.482Z,52.00
2018-06-28T08:45:53.410Z,51.45
2018-06-28T08:47:29.077Z,51.90
2018-06-28T08:49:04.955Z,51.64
2018-06-28T08:50:40.471Z,50.56
2018-06-28T08:52:18.296Z,50.34
2018-06-28T08:53:53.952Z,50.25
2018-06-28T08:55:29.807Z,50.49
2018-06-28T08:57:05.401Z,50.59
2018-06-28T08:58:40.996Z,50.97
2018-06-28T09:00:16.610Z,50.59
2018-06-28T09:01:52.394Z,50.66
2018-06-28T09:03:28.238Z,50.13
2018-06-28T09:05:03.858Z,50.00
2018-06-28T09:06:39.568Z,49.51
2018-06-28T09:08:15.206Z,49.10
2018-06-28T09:09:50.810Z,49.08
2018-06-28T09:11:26.376Z,49.47
2018-06-28T09:13:02.056Z,49.12
2018-06-28T09:14:37.668Z,49.15
2018-06-28T09:16:14.884Z,48.88
2018-06-28T09:17:51.682Z,48.52
2018-06-28T09:19:27.392Z,47.96
2018-06-28T09:21:03.113Z,47.58
2018-06-28T09:22:39.294Z,47.29
2018-06-28T09:24:14.832Z,46.90
2018-06-28T09:25:50.480Z,46.54
2018-06-28T09:27:26.081Z,45.64
2018-06-28T09:29:01.681Z,46.04
2018-06-28T09:30:37.415Z,45.63
2018-06-28T09:32:13.104Z,45.41
2018-06-28T09:33:48.847Z,45.43
2018-06-28T09:35:24.539Z,45.20
2018-06-28T09:37:00.125Z,45.27
2018-06-28T09:38:36.819Z,44.91
2018-06-28T09:40:12.850Z,45.33
2018-06-28T09:43:33.745Z,44.95
2018-06-28T09:45:10.775Z,45.00
2018-06-28T09:46:46.648Z,44.90
2018-06-28T09:48:23.950Z,44.65
2018-06-28T09:49:59.606Z,44.24
2018-06-28T09:51:35.639Z,44.35
2018-06-28T09:53:11.316Z,44.34
2018-06-28T09:54:47.416Z,45.04
2018-06-28T09:56:27.873Z,44.65
2018-06-28T09:58:05.095Z,44.88
2018-06-28T09:59:54.369Z,44.97
2018-06-28T10:01:30.829Z,44.57
2018-06-28T10:03:06.488Z,44.23
2018-06-28T10:04:42.071Z,43.55
2018-06-28T10:06:17.892Z,43.22
2018-06-28T10:07:53.582Z,42.93
2018-06-28T10:09:29.887Z,42.08
2018-06-28T10:11:05.471Z,41.88
2018-06-28T10:12:41.088Z,41.17
2018-06-28T10:14:16.782Z,41.05
2018-06-28T10:15:52.392Z,40.09
2018-06-28T10:17:27.992Z,39.58
2018-06-28T10:19:04.663Z,39.79
2018-06-28T10:20:40.274Z,39.04
2018-06-28T10:22:16.403Z,39.63
2018-06-28T10:23:52.016Z,39.35
2018-06-28T10:25:27.627Z,39.29
2018-06-28T10:27:03.267Z,39.64
2018-06-28T10:28:39.099Z,38.85
2018-06-28T10:30:14.944Z,38.88
2018-06-28T10:31:50.536Z,39.13
2018-06-28T10:33:26.210Z,38.71
2018-06-28T10:35:01.797Z,38.78
2018-06-28T10:36:37.457Z,38.61
2018-06-28T10:38:13.095Z,38.79
2018-06-28T10:39:48.789Z,39.02
2018-06-28T10:41:24.388Z,38.80
2018-06-28T10:42:59.994Z,38.96
2018-06-28T10:44:35.555Z,39.10
2018-06-28T10:46:11.192Z,38.97
2018-06-28T10:47:46.762Z,38.61
2018-06-28T10:49:24.323Z,38.67
2018-06-28T10:51:00.193Z,38.36
2018-06-28T10:52:35.931Z,37.94
2018-06-28T10:54:11.508Z,37.57
2018-06-28T10:55:47.062Z,37.59
2018-06-28T10:57:22.773Z,38.02
2018-06-28T10:58:58.334Z,37.15
2018-06-28T11:00:33.985Z,36.81
2018-06-28T11:02:09.780Z,36.71
2018-06-28T11:03:45.392Z,36.65
2018-06-28T11:05:20.986Z,36.37
2018-06-28T11:06:56.584Z,36.49
2018-06-28T11:08:33.025Z,36.32
2018-06-28T11:10:08.657Z,36.59
2018-06-28T11:11:44.272Z,37.05
2018-06-28T11:13:19.843Z,36.33
2018-06-28T11:14:55.513Z,35.96
2018-06-28T11:16:31.113Z,36.07
2018-06-28T11:18:06.723Z,36.89
2018-06-28T11:19:42.324Z,36.68
2018-06-28T11:21:17.926Z,36.10
2018-06-28T11:22:53.620Z,35.99
2018-06-28T11:24:29.223Z,35.75
2018-06-28T11:26:04.873Z,35.50
2018-06-28T11:27:40.705Z,35.14
2018-06-28T11:29:16.204Z,35.07
2018-06-28T11:30:51.884Z,35.13
2018-06-28T11:32:27.555Z,35.60
2018-06-28T11:34:03.266Z,35.28
2018-06-28T11:35:38.823Z,35.04
2018-06-28T11:37:14.403Z,35.23
2018-06-28T11:38:50.240Z,34.73
2018-06-28T11:40:25.853Z,35.18
2018-06-28T11:42:01.419Z,34.81
2018-06-28T11:43:37.031Z,35.64
2018-06-28T11:45:13.293Z,35.55
2018-06-28T11:46:49.340Z,35.78
2018-06-28T11:48:25.020Z,35.64
2018-06-28T11:50:00.677Z,35.66
2018-06-28T11:51:36.276Z,34.82
2018-06-28T11:53:11.893Z,34.77
2018-06-28T11:54:47.942Z,35.13
2018-06-28T11:56:24.256Z,34.84
2018-06-28T11:58:00.073Z,34.82
2018-06-28T11:59:35.681Z,34.47
2018-06-28T12:01:11.723Z,34.58
2018-06-28T12:02:47.387Z,34.15
2018-06-28T12:04:23.008Z,33.84
2018-06-28T12:05:58.597Z,33.76
2018-06-28T12:07:34.307Z,32.76
2018-06-28T12:09:11.475Z,32.40
2018-06-28T12:10:47.112Z,31.75
2018-06-28T12:12:22.700Z,31.28
2018-06-28T12:13:58.262Z,31.59
2018-06-28T12:15:33.870Z,31.43
2018-06-28T12:17:09.472Z,30.81
2018-06-28T12:18:45.237Z,31.20
2018-06-28T12:20:20.802Z,30.87
2018-06-28T12:21:56.822Z,30.11
2018-06-28T12:23:32.920Z,30.28
2018-06-28T12:25:08.772Z,30.90
2018-06-28T12:26:44.351Z,30.80
2018-06-28T12:28:19.979Z,31.69
2018-06-28T12:29:55.593Z,32.40
2018-06-28T12:31:31.154Z,32.80
2018-06-28T12:33:06.750Z,32.93
2018-06-28T12:34:42.607Z,33.23
2018-06-28T12:36:18.255Z,33.09
2018-06-28T12:37:54.124Z,32.78
2018-06-28T12:39:29.672Z,33.07
2018-06-28T12:41:05.234Z,33.02
2018-06-28T12:42:40.811Z,32.32
2018-06-28T12:44:16.451Z,32.05
2018-06-28T12:45:52.071Z,31.47
2018-06-28T12:47:56.475Z,31.42
2018-06-28T12:49:32.206Z,31.44
2018-06-28T12:51:07.781Z,31.60
2018-06-28T12:52:48.617Z,31.46
2018-06-28T12:54:24.200Z,31.39
2018-06-28T12:56:18.780Z,31.94
2018-06-28T12:57:55.594Z,31.89
2018-06-28T12:59:31.170Z,31.57
2018-06-28T13:01:06.795Z,31.26
2018-06-28T13:02:42.633Z,31.16
2018-06-28T13:04:18.325Z,31.28
2018-06-28T13:05:53.912Z,30.56
2018-06-28T13:07:29.599Z,30.39
2018-06-28T13:09:11.648Z,30.99
2018-06-28T13:10:47.262Z,30.37
2018-06-28T13:12:22.958Z,30.41
2018-06-28T13:13:59.108Z,30.88
2018-06-28T13:15:35.172Z,30.69
2018-06-28T13:17:10.891Z,30.20
2018-06-28T13:18:47.216Z,30.61
2018-06-28T13:20:22.803Z,30.75
2018-06-28T13:21:58.415Z,31.61
2018-06-28T13:23:33.985Z,31.96
2018-06-28T13:25:10.867Z,32.12
2018-06-28T13:26:46.459Z,31.95
2018-06-28T13:28:22.088Z,31.60
2018-06-28T13:29:57.675Z,31.59
2018-06-28T13:31:33.306Z,32.07
2018-06-28T13:33:08.857Z,31.10
2018-06-28T13:34:44.586Z,31.53
2018-06-28T13:36:20.275Z,31.09
2018-06-28T13:37:56.057Z,31.08
2018-06-28T13:39:31.697Z,31.22
2018-06-28T13:41:07.854Z,32.40
2018-06-28T13:42:43.735Z,32.06
2018-06-28T13:44:19.383Z,31.25
2018-06-28T13:45:55.155Z,31.50
2018-06-28T13:47:31.050Z,31.97
2018-06-28T13:49:06.811Z,32.46
2018-06-28T13:50:42.426Z,32.17
2018-06-28T13:52:18.043Z,31.92
2018-06-28T13:53:53.692Z,32.22
2018-06-28T13:55:29.276Z,32.24
2018-06-28T13:57:04.938Z,32.80
2018-06-28T13:58:40.570Z,32.37
2018-06-28T14:00:16.162Z,32.25
2018-06-28T14:01:52.483Z,32.43
2018-06-28T14:03:28.167Z,32.40
2018-06-28T14:05:03.704Z,32.78
2018-06-28T14:06:39.283Z,33.36
2018-06-28T14:08:14.917Z,34.06
2018-06-28T14:09:50.735Z,33.61
2018-06-28T14:11:26.380Z,34.15
2018-06-28T14:13:01.979Z,33.61
2018-06-28T14:14:37.612Z,33.71
2018-06-28T14:16:13.208Z,33.76
2018-06-28T14:17:48.810Z,33.92
2018-06-28T14:19:24.377Z,33.72
2018-06-28T14:21:00.118Z,33.91
2018-06-28T14:22:35.962Z,34.46
2018-06-28T14:24:11.536Z,34.19
2018-06-28T14:25:47.216Z,34.74
2018-06-28T14:27:22.787Z,36.41
2018-06-28T14:28:58.405Z,36.89
2018-06-28T14:30:35.038Z,37.38
2018-06-28T14:32:11.892Z,38.27
2018-06-28T14:33:49.853Z,38.61
2018-06-28T14:35:25.454Z,39.96
2018-06-28T14:37:05.652Z,40.47
2018-06-28T14:38:48.815Z,40.90
2018-06-28T14:40:25.379Z,41.79
2018-06-28T14:42:01.797Z,42.54
2018-06-28T14:43:37.563Z,42.83
2018-06-28T14:45:16.219Z,43.14
2018-06-28T14:46:51.867Z,43.59
2018-06-28T14:48:27.583Z,43.95
2018-06-28T14:50:03.524Z,44.99
2018-06-28T14:51:39.158Z,45.10
2018-06-28T14:53:14.798Z,45.55
2018-06-28T14:54:50.648Z,45.96
2018-06-28T14:56:27.051Z,45.55
2018-06-28T14:58:03.446Z,45.56
2018-06-28T14:59:39.028Z,45.58
2018-06-28T15:01:16.868Z,45.17
2018-06-28T15:02:52.779Z,45.59
2018-06-28T15:04:28.386Z,45.12
2018-06-28T15:06:03.980Z,45.38
2018-06-28T15:07:39.544Z,44.63
2018-06-28T15:09:15.854Z,44.37
2018-06-28T15:10:51.492Z,44.85
2018-06-28T15:12:27.413Z,44.41
2018-06-28T15:14:03.867Z,44.20
2018-06-28T15:15:39.460Z,44.76
2018-06-28T15:17:15.102Z,44.93
2018-06-28T15:18:50.847Z,44.93
2018-06-28T15:20:26.388Z,44.40
2018-06-28T15:22:01.980Z,45.17
2018-06-28T15:23:38.733Z,44.99
2018-06-28T15:25:14.360Z,44.93
2018-06-28T15:26:49.999Z,45.01
2018-06-28T15:28:25.918Z,44.96
2018-06-28T15:30:01.703Z,45.25
2018-06-28T15:31:37.429Z,44.79
2018-06-28T15:33:13.112Z,44.78
2018-06-28T15:34:48.709Z,44.78
2018-06-28T15:36:24.408Z,44.81
2018-06-28T15:38:00.081Z,44.40
2018-06-28T15:39:35.948Z,44.45
2018-06-28T15:41:11.867Z,44.62
2018-06-28T15:42:47.876Z,44.64
2018-06-28T15:44:23.650Z,44.56
2018-06-28T15:46:04.661Z,45.21
2018-06-28T15:47:41.432Z,45.07
2018-06-28T15:49:18.342Z,44.35
2018-06-28T15:50:54.149Z,44.68
2018-06-28T15:52:30.474Z,44.54
2018-06-28T15:54:06.903Z,44.11
2018-06-28T15:55:42.553Z,44.81
2018-06-28T15:57:18.371Z,44.70
2018-06-28T15:58:58.481Z,44.88
2018-06-28T16:00:34.126Z,45.31
2018-06-28T16:02:09.972Z,47.35
2018-06-28T16:03:46.047Z,47.43
2018-06-28T16:05:21.985Z,48.29
2018-06-28T16:06:57.991Z,48.40
2018-06-28T16:08:33.669Z,47.53
2018-06-28T16:10:09.299Z,47.06
2018-06-28T16:11:50.566Z,47.66
2018-06-28T16:13:26.317Z,47.22
2018-06-28T16:15:02.624Z,46.07
2018-06-28T16:16:38.579Z,45.70
2018-06-28T16:18:14.164Z,45.45
2018-06-28T16:19:49.852Z,44.43
2018-06-28T16:21:25.415Z,44.56
2018-06-28T16:23:01.122Z,44.76
2018-06-28T16:24:36.911Z,44.70
2018-06-28T16:26:13.623Z,44.25
2018-06-28T16:27:49.234Z,44.45
2018-06-28T16:29:24.920Z,43.91
2018-06-28T16:31:00.475Z,43.94
2018-06-28T16:32:36.080Z,43.57
2018-06-28T16:34:12.109Z,43.58
2018-06-28T16:35:48.447Z,43.67
2018-06-28T16:37:24.446Z,43.21
2018-06-28T16:39:00.031Z,42.21
2018-06-28T16:40:35.629Z,42.45
2018-06-28T16:42:11.184Z,43.06
2018-06-28T16:43:46.768Z,43.01
2018-06-28T16:45:22.375Z,42.63
2018-06-28T16:46:57.950Z,42.40
2018-06-28T16:48:33.536Z,42.79
2018-06-28T16:50:09.200Z,43.06
2018-06-28T16:51:44.902Z,42.73
2018-06-28T16:53:20.494Z,42.64
2018-06-28T16:54:56.115Z,42.42
2018-06-28T16:56:31.718Z,42.54
2018-06-28T16:58:08.154Z,43.12
2018-06-28T16:59:44.154Z,43.21
2018-06-28T17:01:19.678Z,43.13
2018-06-28T17:02:55.271Z,43.27
2018-06-28T17:04:30.868Z,43.44
2018-06-28T17:06:06.474Z,43.29
2018-06-28T17:07:42.126Z,43.60
2018-06-28T17:09:17.877Z,44.15
2018-06-28T17:10:53.734Z,44.03
2018-06-28T17:12:29.659Z,43.51
2018-06-28T17:14:05.609Z,44.03
2018-06-28T17:15:43.373Z,43.89
2018-06-28T17:17:19.903Z,44.07
2018-06-28T17:18:55.523Z,44.84
2018-06-28T17:20:32.111Z,44.25
2018-06-28T17:22:08.912Z,44.62
2018-06-28T17:23:45.285Z,44.49
2018-06-28T17:25:20.944Z,44.70
2018-06-28T17:26:56.745Z,44.88
2018-06-28T17:28:32.407Z,44.54
2018-06-28T17:30:08.042Z,44.33
2018-06-28T17:31:43.929Z,44.28
2018-06-28T17:33:19.532Z,44.57
2018-06-28T17:34:55.264Z,45.09
2018-06-28T17:36:30.948Z,44.65
2018-06-28T17:38:06.480Z,44.91
2018-06-28T17:39:42.579Z,44.88
2018-06-28T17:41:18.176Z,45.03
2018-06-28T17:42:54.068Z,44.81
2018-06-28T17:44:29.680Z,45.66
2018-06-28T17:46:05.284Z,45.59
2018-06-28T17:47:40.847Z,45.76
2018-06-28T17:49:17.635Z,47.06
2018-06-28T17:50:53.289Z,48.14
2018-06-28T17:52:29.232Z,47.26
2018-06-28T17:54:05.089Z,47.78
2018-06-28T17:55:40.671Z,48.42
2018-06-28T17:57:16.946Z,48.17
2018-06-28T17:58:52.537Z,47.70
2018-06-28T18:00:28.109Z,48.54
2018-06-28T18:02:03.679Z,47.98
2018-06-28T18:03:40.234Z,48.56
2018-06-28T18:05:17.674Z,49.06
2018-06-28T18:06:55.355Z,47.75
2018-06-28T18:08:31.505Z,47.44
2018-06-28T18:10:10.628Z,48.07
2018-06-28T18:11:48.224Z,48.95
2018-06-28T18:13:25.577Z,49.22
2018-06-28T18:15:03.509Z,48.81
2018-06-28T18:16:41.599Z,48.47
2018-06-28T18:18:17.395Z,48.20
2018-06-28T18:19:54.535Z,47.84
2018-06-28T18:21:30.991Z,47.57
2018-06-28T18:23:07.069Z,48.20
2018-06-28T18:24:44.186Z,47.53
2018-06-28T18:26:20.191Z,47.50
2018-06-28T18:27:57.031Z,47.63
2018-06-28T18:29:33.674Z,48.07
2018-06-28T18:31:09.373Z,47.86
2018-06-28T18:32:45.332Z,48.48
2018-06-28T18:34:21.058Z,48.82
2018-06-28T18:35:56.855Z,48.57
2018-06-28T18:37:33.999Z,49.02
2018-06-28T18:39:10.577Z,48.94
2018-06-28T18:40:48.102Z,49.26
2018-06-28T18:42:23.964Z,50.22
2018-06-28T18:43:59.790Z,49.77
2018-06-28T18:45:35.410Z,49.82
2018-06-28T18:47:11.012Z,49.84
2018-06-28T18:48:46.623Z,49.87
2018-06-28T18:50:22.469Z,50.42
2018-06-28T18:51:58.048Z,50.63
2018-06-28T18:53:33.863Z,50.71
2018-06-28T18:55:09.467Z,50.88
2018-06-28T18:56:45.085Z,51.16
2018-06-28T18:58:20.677Z,51.68
2018-06-28T18:59:56.493Z,51.50
2018-06-28T19:01:32.199Z,51.81
2018-06-28T19:03:07.851Z,51.62
2018-06-28T19:04:43.419Z,51.49
2018-06-28T19:06:19.186Z,51.76
2018-06-28T19:07:54.941Z,52.23
2018-06-28T19:09:36.093Z,52.42
2018-06-28T19:11:11.805Z,52.40
2018-06-28T19:12:47.654Z,52.48
2018-06-28T19:14:28.978Z,52.54
2018-06-28T19:16:11.745Z,52.23
2018-06-28T19:17:48.519Z,52.75
2018-06-28T19:19:24.125Z,52.73
2018-06-28T19:21:05.131Z,52.48
2018-06-28T19:22:49.323Z,52.87
2018-06-28T19:24:25.990Z,52.61
2018-06-28T19:26:02.162Z,52.89
2018-06-28T19:27:41.544Z,52.97
2018-06-28T19:29:23.157Z,52.25
2018-06-28T19:31:04.448Z,51.96
2018-06-28T19:32:40.782Z,52.62
2018-06-28T19:34:16.399Z,52.92
2018-06-28T19:35:52.044Z,51.42
2018-06-28T19:37:33.253Z,50.84
2018-06-28T19:39:14.765Z,51.62
2018-06-28T19:40:57.393Z,52.37
2018-06-28T19:42:38.915Z,52.47
2018-06-28T19:44:15.445Z,52.30
2018-06-28T19:45:51.363Z,51.96
2018-06-28T19:47:27.928Z,52.41
2018-06-28T19:49:08.257Z,51.81
2018-06-28T19:50:49.572Z,52.36
2018-06-28T19:52:31.046Z,51.61
2018-06-28T19:54:06.725Z,51.96
2018-06-28T19:55:43.455Z,52.45
2018-06-28T19:57:19.206Z,52.18
2018-06-28T19:58:54.964Z,51.77
2018-06-28T20:00:36.001Z,51.80
2018-06-28T20:02:17.260Z,51.88
2018-06-28T20:03:58.872Z,52.21
2018-06-28T20:05:34.744Z,52.80
2018-06-28T20:07:10.731Z,52.41
2018-06-28T20:08:49.497Z,52.49
2018-06-28T20:10:25.874Z,52.74
2018-06-28T20:12:01.627Z,52.10
2018-06-28T20:13:42.627Z,53.12
2018-06-28T20:15:23.447Z,53.50
2018-06-28T20:17:04.443Z,53.48
2018-06-28T20:18:45.411Z,53.96
2018-06-28T20:20:26.070Z,53.58
2018-06-28T20:22:01.697Z,54.00
2018-06-28T20:23:37.322Z,53.61
2018-06-28T20:25:13.073Z,53.78
2018-06-28T20:26:54.012Z,53.93
2018-06-28T20:28:34.951Z,52.74
2018-06-28T20:30:15.830Z,53.56
2018-06-28T20:31:56.800Z,53.30
2018-06-28T20:33:37.862Z,53.51
2018-06-28T20:35:13.438Z,53.39
2018-06-28T20:36:49.011Z,53.73
2018-06-28T20:38:24.626Z,54.02
2018-06-28T20:40:00.263Z,54.32
2018-06-28T20:41:35.877Z,54.30